Time;durP1;ratioP1;P1;durP2;ratioP2;P2;SDS_P1;SDS_P2;PMS_P1;PMS_P2;Temp;Humidity;BMP_temperature;BMP_pressure;BME280_temperature;BME280_humidity;BME280_pressure;Samples;Min_cycle;Max_cycle;Signal;HPM_P1;HPM_P2
2023/05/04 00:00:46;;;;;;;3.97;2.53;;;;;;;;;;2051095;28;20035;-83
2023/05/04 00:02:06;;;;;;;9.20;1.90;;;;;;;;;;2052110;28;20023;-83
2023/05/04 00:03:25;;;;;;;6.63;2.53;;;;;;;;;;2052181;28;20457;-83
2023/05/04 00:04:44;;;;;;;8.85;2.95;;;;;;;;;;2053946;28;20032;-83
2023/05/04 00:06:03;;;;;;;3.47;2.10;;;;;;;;;;2049510;28;20030;-83
2023/05/04 00:07:22;;;;;;;6.75;2.65;;;;;;;;;;2047317;28;20039;-83
2023/05/04 00:08:41;;;;;;;4.75;2.40;;;;;;;;;;2052858;28;20031;-83
2023/05/04 00:10:00;;;;;;;3.30;2.13;;;;;;;;;;2050742;28;20035;-83
2023/05/04 00:11:19;;;;;;;7.10;2.40;;;;;;;;;;2046193;28;20040;-81
2023/05/04 00:12:39;;;;;;;7.10;2.30;;;;;;;;;;2047392;28;20027;-83
2023/05/04 00:13:58;;;;;;;6.03;2.15;;;;;;;;;;2050185;28;20031;-83
2023/05/04 00:15:17;;;;;;;7.65;3.13;;;;;;;;;;2048315;28;20114;-82
2023/05/04 00:16:36;;;;;;;6.93;2.70;;;;;;;;;;2051015;28;20043;-82
2023/05/04 00:17:55;;;;;;;5.00;2.60;;;;;;;;;;2051877;28;20035;-83
2023/05/04 00:19:17;;;;;;;10.55;2.80;;;;;;;;;;2050720;28;20027;-83
2023/05/04 00:20:36;;;;;;;5.47;3.25;;;;;;;;;;2047883;28;20036;-83
2023/05/04 00:21:56;;;;;;;5.85;2.13;;;;;;;;;;2050689;28;20035;-83
2023/05/04 00:23:15;;;;;;;5.22;2.70;;;;;;;;;;2054530;28;20035;-83
2023/05/04 00:24:33;;;;;;;5.10;2.60;;;;;;;;;;2051683;28;20015;-84
2023/05/04 00:25:53;;;;;;;6.43;2.58;;;;;;;;;;2051736;28;20118;-84
2023/05/04 00:27:12;;;;;;;5.63;2.55;;;;;;;;;;2056623;28;20030;-84
2023/05/04 00:28:31;;;;;;;6.38;2.53;;;;;;;;;;2052449;28;20035;-84
2023/05/04 00:29:50;;;;;;;7.40;2.38;;;;;;;;;;2044641;28;20031;-84
2023/05/04 00:31:09;;;;;;;6.50;2.83;;;;;;;;;;2049490;28;20024;-84
2023/05/04 00:32:28;;;;;;;9.40;2.38;;;;;;;;;;2057169;28;20027;-84
2023/05/04 00:33:47;;;;;;;9.23;2.83;;;;;;;;;;2050677;28;20044;-84
2023/05/04 00:35:06;;;;;;;7.85;3.00;;;;;;;;;;2053125;28;20416;-83
2023/05/04 00:36:26;;;;;;;5.22;2.70;;;;;;;;;;2050775;28;20031;-84
2023/05/04 00:37:45;;;;;;;5.82;2.55;;;;;;;;;;2049069;28;20031;-83
2023/05/04 00:39:04;;;;;;;7.57;3.65;;;;;;;;;;2052300;28;20031;-83
2023/05/04 00:40:23;;;;;;;7.13;2.88;;;;;;;;;;2053453;28;20028;-83
2023/05/04 00:41:44;;;;;;;4.80;2.75;;;;;;;;;;2051259;28;20032;-83
2023/05/04 00:43:03;;;;;;;6.90;2.92;;;;;;;;;;2057121;28;20027;-82
2023/05/04 00:44:24;;;;;;;9.55;2.80;;;;;;;;;;2050221;28;20023;-82
2023/05/04 00:45:43;;;;;;;4.43;2.80;;;;;;;;;;2057201;28;20046;-84
2023/05/04 00:47:03;;;;;;;4.20;2.67;;;;;;;;;;2051624;28;20027;-82
2023/05/04 00:48:22;;;;;;;4.47;2.58;;;;;;;;;;2044506;28;20102;-82
2023/05/04 00:49:40;;;;;;;5.22;2.75;;;;;;;;;;2047127;28;20066;-84
2023/05/04 00:51:00;;;;;;;4.13;2.90;;;;;;;;;;2052291;28;20035;-83
2023/05/04 00:52:19;;;;;;;7.75;3.08;;;;;;;;;;2052578;28;20056;-83
2023/05/04 00:53:39;;;;;;;7.55;2.90;;;;;;;;;;2053136;28;20062;-84
2023/05/04 00:54:59;;;;;;;4.78;2.42;;;;;;;;;;2052191;28;20027;-82
2023/05/04 00:56:20;;;;;;;9.40;2.75;;;;;;;;;;2052639;28;20047;-84
2023/05/04 00:57:40;;;;;;;6.20;2.20;;;;;;;;;;2051513;28;20035;-83
2023/05/04 00:58:59;;;;;;;6.18;2.88;;;;;;;;;;2049887;28;20087;-83
2023/05/04 01:00:18;;;;;;;7.82;2.95;;;;;;;;;;2052489;28;20547;-81
2023/05/04 01:01:37;;;;;;;8.60;2.70;;;;;;;;;;2047378;28;20135;-81
2023/05/04 01:02:56;;;;;;;5.57;2.60;;;;;;;;;;2052182;28;20031;-80
2023/05/04 01:04:15;;;;;;;4.40;2.60;;;;;;;;;;2051133;28;20058;-81
2023/05/04 01:05:37;;;;;;;8.98;2.80;;;;;;;;;;2059287;28;20508;-81
2023/05/04 01:07:05;;;;;;;4.45;2.60;;;;;;;;;;2054407;28;20113;-81
2023/05/04 01:08:30;;;;;;;5.57;2.55;;;;;;;;;;2061773;28;20030;-82
2023/05/04 01:09:51;;;;;;;20.25;3.10;;;;;;;;;;2051366;28;20061;-82
2023/05/04 01:11:10;;;;;;;3.55;2.42;;;;;;;;;;2045791;28;20032;-82
2023/05/04 01:12:34;;;;;;;4.20;2.28;;;;;;;;;;2049666;28;20019;-81
2023/05/04 01:13:55;;;;;;;4.30;2.38;;;;;;;;;;2054181;28;20035;-82
2023/05/04 01:15:14;;;;;;;2.33;2.13;;;;;;;;;;2044130;28;20478;-80
2023/05/04 01:16:34;;;;;;;4.03;1.95;;;;;;;;;;2056221;28;20058;-82
2023/05/04 01:17:53;;;;;;;5.20;2.30;;;;;;;;;;2055769;28;20027;-82
2023/05/04 01:19:12;;;;;;;3.17;2.22;;;;;;;;;;2053173;28;20031;-81
2023/05/04 01:20:31;;;;;;;4.60;2.47;;;;;;;;;;2049905;28;20038;-82
2023/05/04 01:21:50;;;;;;;3.20;2.67;;;;;;;;;;2059504;28;20042;-82
2023/05/04 01:23:09;;;;;;;5.80;2.63;;;;;;;;;;2052764;28;20031;-80
2023/05/04 01:24:31;;;;;;;4.68;2.15;;;;;;;;;;2049884;28;20028;-81
2023/05/04 01:26:06;;;;;;;2.85;2.30;;;;;;;;;;2047730;28;20051;-82
2023/05/04 01:27:39;;;;;;;3.55;1.95;;;;;;;;;;2050937;28;20030;-81
2023/05/04 01:29:20;;;;;;;2.13;1.40;;;;;;;;;;2054303;28;20157;-82
2023/05/04 01:30:43;;;;;;;2.53;1.60;;;;;;;;;;2047671;28;20780;-81
2023/05/04 01:32:02;;;;;;;6.45;2.00;;;;;;;;;;2050361;28;20050;-81
2023/05/04 01:33:22;;;;;;;2.45;2.22;;;;;;;;;;2052287;28;20031;-81
2023/05/04 01:34:41;;;;;;;3.70;2.00;;;;;;;;;;2054092;28;20031;-82
2023/05/04 01:36:00;;;;;;;1.90;1.80;;;;;;;;;;2053248;28;20074;-80
2023/05/04 01:37:19;;;;;;;1.90;1.70;;;;;;;;;;2052327;28;20050;-81
2023/05/04 01:38:38;;;;;;;2.95;1.83;;;;;;;;;;2052695;28;20110;-81
2023/05/04 01:39:57;;;;;;;3.38;2.22;;;;;;;;;;2064421;28;20046;-80
2023/05/04 01:41:17;;;;;;;2.13;1.50;;;;;;;;;;2058585;28;20027;-81
2023/05/04 01:42:36;;;;;;;2.38;1.73;;;;;;;;;;2064093;28;20043;-80
2023/05/04 01:43:58;;;;;;;4.43;1.80;;;;;;;;;;2061730;28;20086;-81
2023/05/04 01:45:17;;;;;;;1.75;1.63;;;;;;;;;;2058441;28;20035;-81
2023/05/04 01:46:35;;;;;;;2.55;1.60;;;;;;;;;;2067483;28;20054;-81
2023/05/04 01:47:55;;;;;;;4.63;1.40;;;;;;;;;;2060591;28;20026;-82
2023/05/04 01:49:14;;;;;;;1.92;1.60;;;;;;;;;;2058719;28;20039;-83
2023/05/04 01:50:34;;;;;;;3.53;1.45;;;;;;;;;;2057864;28;20047;-82
2023/05/04 01:51:53;;;;;;;4.00;1.50;;;;;;;;;;2058195;28;20039;-82
2023/05/04 01:53:12;;;;;;;5.60;1.85;;;;;;;;;;2055290;28;20030;-82
2023/05/04 01:54:31;;;;;;;1.67;1.40;;;;;;;;;;2051900;28;20035;-82
2023/05/04 01:55:53;;;;;;;2.55;1.50;;;;;;;;;;2055786;28;20027;-82
2023/05/04 01:57:12;;;;;;;3.25;1.50;;;;;;;;;;2055600;28;20058;-82
2023/05/04 01:58:31;;;;;;;1.40;1.30;;;;;;;;;;2050929;28;20031;-82
2023/05/04 01:59:50;;;;;;;5.38;1.63;;;;;;;;;;2055472;28;20070;-82
2023/05/04 02:01:10;;;;;;;2.53;1.27;;;;;;;;;;2054527;28;20054;-81
2023/05/04 02:02:30;;;;;;;2.83;1.65;;;;;;;;;;2056998;28;20058;-83
2023/05/04 02:03:51;;;;;;;2.30;1.33;;;;;;;;;;2055785;28;20035;-83
2023/05/04 02:05:11;;;;;;;3.20;1.60;;;;;;;;;;2059561;28;20023;-83
2023/05/04 02:06:30;;;;;;;1.42;1.33;;;;;;;;;;2056926;28;20027;-82
2023/05/04 02:07:49;;;;;;;1.30;1.20;;;;;;;;;;2062943;28;20023;-81
2023/05/04 02:09:08;;;;;;;2.40;1.73;;;;;;;;;;2060242;28;20034;-80
2023/05/04 02:10:28;;;;;;;4.55;1.90;;;;;;;;;;2054971;28;20576;-80
2023/05/04 02:11:47;;;;;;;2.95;1.67;;;;;;;;;;2050132;28;20109;-81
2023/05/04 02:13:06;;;;;;;1.38;1.27;;;;;;;;;;2049364;28;20028;-81
2023/05/04 02:14:25;;;;;;;3.95;1.63;;;;;;;;;;2051481;28;20115;-82
2023/05/04 02:15:44;;;;;;;1.50;1.40;;;;;;;;;;2052200;28;20035;-81
2023/05/04 02:17:03;;;;;;;1.83;1.60;;;;;;;;;;2061181;28;20031;-82
2023/05/04 02:18:22;;;;;;;3.88;1.30;;;;;;;;;;2054812;28;20051;-83
2023/05/04 02:19:41;;;;;;;3.90;1.65;;;;;;;;;;2057621;28;20030;-84
2023/05/04 02:21:00;;;;;;;21.92;1.73;;;;;;;;;;2055118;28;20043;-83
2023/05/04 02:22:19;;;;;;;1.52;1.42;;;;;;;;;;2051428;28;20091;-83
2023/05/04 02:23:38;;;;;;;4.88;1.42;;;;;;;;;;2053391;28;20652;-83
2023/05/04 02:24:57;;;;;;;1.85;1.40;;;;;;;;;;2051305;28;20027;-82
2023/05/04 02:26:16;;;;;;;2.63;1.88;;;;;;;;;;2054873;28;20031;-83
2023/05/04 02:27:35;;;;;;;2.75;1.60;;;;;;;;;;2052591;28;20110;-81
2023/05/04 02:28:54;;;;;;;2.00;1.60;;;;;;;;;;2055729;28;20502;-82
2023/05/04 02:30:13;;;;;;;2.17;1.50;;;;;;;;;;2054736;28;20086;-84
2023/05/04 02:31:33;;;;;;;1.67;1.55;;;;;;;;;;2051790;28;20039;-82
2023/05/04 02:32:52;;;;;;;1.20;1.17;;;;;;;;;;2051637;28;20034;-83
2023/05/04 02:34:11;;;;;;;3.55;1.52;;;;;;;;;;2050209;28;20492;-82
2023/05/04 02:35:30;;;;;;;2.67;1.42;;;;;;;;;;2049171;28;20526;-82
2023/05/04 02:36:49;;;;;;;3.88;1.73;;;;;;;;;;2053384;28;20030;-82
2023/05/04 02:38:09;;;;;;;2.45;1.75;;;;;;;;;;2050809;28;20035;-81
2023/05/04 02:39:28;;;;;;;1.48;1.38;;;;;;;;;;2048131;28;20039;-81
2023/05/04 02:40:49;;;;;;;4.35;2.13;;;;;;;;;;2051448;28;20039;-82
2023/05/04 02:42:09;;;;;;;1.70;1.40;;;;;;;;;;2061114;28;20116;-83
2023/05/04 02:43:28;;;;;;;2.97;1.48;;;;;;;;;;2051581;28;20051;-82
2023/05/04 02:44:48;;;;;;;2.92;1.80;;;;;;;;;;2050489;28;20031;-82
2023/05/04 02:46:07;;;;;;;2.17;1.40;;;;;;;;;;2052510;28;20031;-82
2023/05/04 02:47:26;;;;;;;2.67;1.52;;;;;;;;;;2063446;28;20030;-82
2023/05/04 02:48:45;;;;;;;1.80;1.70;;;;;;;;;;2055176;28;20031;-82
2023/05/04 02:50:04;;;;;;;2.10;1.40;;;;;;;;;;2052997;28;20023;-82
2023/05/04 02:51:23;;;;;;;4.47;2.00;;;;;;;;;;2055476;28;20409;-81
2023/05/04 02:52:43;;;;;;;2.38;1.75;;;;;;;;;;2051891;28;20031;-82
2023/05/04 02:54:02;;;;;;;1.77;1.48;;;;;;;;;;2054962;28;20027;-82
2023/05/04 02:55:21;;;;;;;2.30;1.83;;;;;;;;;;2049810;28;20414;-82
2023/05/04 02:56:39;;;;;;;2.00;1.80;;;;;;;;;;2053701;28;20035;-82
2023/05/04 02:57:58;;;;;;;5.13;1.60;;;;;;;;;;2053419;28;20058;-82
2023/05/04 02:59:18;;;;;;;5.25;2.00;;;;;;;;;;2050912;28;20031;-83
2023/05/04 03:00:36;;;;;;;3.25;1.80;;;;;;;;;;2052155;28;20066;-82
2023/05/04 03:01:56;;;;;;;5.07;2.10;;;;;;;;;;2054990;28;20028;-82
2023/05/04 03:03:16;;;;;;;1.88;1.65;;;;;;;;;;2050238;28;20024;-81
2023/05/04 03:04:35;;;;;;;3.50;1.65;;;;;;;;;;2055654;28;20031;-82
2023/05/04 03:05:54;;;;;;;1.73;1.60;;;;;;;;;;2052959;28;20063;-82
2023/05/04 03:07:13;;;;;;;2.00;1.70;;;;;;;;;;2051214;28;20024;-82
2023/05/04 03:08:34;;;;;;;1.75;1.65;;;;;;;;;;2054375;28;20059;-82
2023/05/04 03:09:53;;;;;;;1.65;1.55;;;;;;;;;;2059511;28;20447;-82
2023/05/04 03:11:15;;;;;;;3.72;2.03;;;;;;;;;;2059053;28;20027;-82
2023/05/04 03:12:35;;;;;;;4.32;1.65;;;;;;;;;;2056134;28;20031;-82
2023/05/04 03:13:55;;;;;;;1.73;1.60;;;;;;;;;;2055378;28;20066;-82
2023/05/04 03:15:15;;;;;;;2.28;1.70;;;;;;;;;;2054335;28;20027;-81
2023/05/04 03:16:34;;;;;;;4.43;1.75;;;;;;;;;;2055327;28;20023;-81
2023/05/04 03:17:53;;;;;;;2.28;1.90;;;;;;;;;;2053881;28;20110;-82
2023/05/04 03:19:12;;;;;;;3.08;1.58;;;;;;;;;;2059191;28;20030;-83
2023/05/04 03:20:31;;;;;;;1.85;1.63;;;;;;;;;;2051963;28;20027;-82
2023/05/04 03:21:50;;;;;;;3.70;1.85;;;;;;;;;;2049108;28;20517;-82
2023/05/04 03:23:09;;;;;;;5.05;2.00;;;;;;;;;;2053801;28;20110;-82
2023/05/04 03:24:28;;;;;;;3.72;2.03;;;;;;;;;;2052202;28;20036;-83
2023/05/04 03:25:47;;;;;;;3.88;2.10;;;;;;;;;;2052388;28;20110;-82
2023/05/04 03:27:06;;;;;;;3.00;1.70;;;;;;;;;;2049293;28;20027;-82
2023/05/04 03:28:25;;;;;;;2.15;1.80;;;;;;;;;;2049690;28;20023;-82
2023/05/04 03:29:44;;;;;;;3.85;2.00;;;;;;;;;;2054570;28;20019;-83
2023/05/04 03:31:03;;;;;;;3.60;1.60;;;;;;;;;;2051771;28;20444;-83
2023/05/04 03:32:22;;;;;;;1.83;1.73;;;;;;;;;;2052350;28;20028;-83
2023/05/04 03:33:40;;;;;;;2.95;1.80;;;;;;;;;;2051079;28;20039;-83
2023/05/04 03:35:01;;;;;;;2.17;1.50;;;;;;;;;;2049546;28;20039;-82
2023/05/04 03:36:20;;;;;;;2.42;1.60;;;;;;;;;;2049298;28;20035;-82
2023/05/04 03:37:39;;;;;;;2.63;1.60;;;;;;;;;;2049899;28;20090;-82
2023/05/04 03:38:58;;;;;;;2.65;2.25;;;;;;;;;;2052398;28;20031;-83
2023/05/04 03:40:21;;;;;;;4.47;2.40;;;;;;;;;;2054019;28;20396;-82
2023/05/04 03:41:40;;;;;;;;;;;;;;;;;;2051592;28;20035;-82
2023/05/04 03:42:59;;;;;;;4.10;1.70;;;;;;;;;;2053545;28;19918;-83
2023/05/04 03:44:18;;;;;;;3.45;1.95;;;;;;;;;;2053068;28;20023;-83
2023/05/04 03:45:37;;;;;;;1.88;1.70;;;;;;;;;;2050197;28;20034;-82
2023/05/04 03:46:56;;;;;;;2.72;2.00;;;;;;;;;;2058828;28;20084;-83
2023/05/04 03:48:15;;;;;;;6.25;2.03;;;;;;;;;;2057428;28;20035;-83
2023/05/04 03:49:36;;;;;;;4.22;1.48;;;;;;;;;;2052385;28;20023;-83
2023/05/04 03:50:55;;;;;;;1.85;1.70;;;;;;;;;;2060070;28;20023;-82
2023/05/04 03:52:13;;;;;;;6.15;2.03;;;;;;;;;;2050497;28;20461;-81
2023/05/04 03:53:35;;;;;;;2.97;1.95;;;;;;;;;;2053550;28;20034;-81
2023/05/04 03:54:54;;;;;;;3.65;1.83;;;;;;;;;;2052747;28;20034;-81
2023/05/04 03:56:13;;;;;;;4.32;2.28;;;;;;;;;;2052435;28;20109;-80
2023/05/04 03:57:32;;;;;;;7.20;2.55;;;;;;;;;;2051280;28;20094;-82
2023/05/04 03:58:53;;;;;;;2.58;1.92;;;;;;;;;;2050139;28;20035;-81
2023/05/04 04:00:12;;;;;;;9.95;3.05;;;;;;;;;;2050061;28;20058;-81
2023/05/04 04:01:30;;;;;;;3.83;2.45;;;;;;;;;;2052929;28;20019;-81
2023/05/04 04:02:50;;;;;;;2.55;2.00;;;;;;;;;;2057892;28;20508;-81
2023/05/04 04:04:09;;;;;;;4.90;2.00;;;;;;;;;;2061866;28;20121;-82
2023/05/04 04:05:27;;;;;;;3.00;1.77;;;;;;;;;;2052473;28;20027;-82
2023/05/04 04:06:46;;;;;;;2.40;2.20;;;;;;;;;;2053723;28;20027;-82
2023/05/04 04:08:08;;;;;;;6.18;2.33;;;;;;;;;;2053510;28;20031;-81
2023/05/04 04:09:27;;;;;;;2.50;2.30;;;;;;;;;;2054479;28;20039;-81
2023/05/04 04:10:47;;;;;;;6.05;2.10;;;;;;;;;;2049611;28;20417;-82
2023/05/04 04:12:06;;;;;;;6.78;2.28;;;;;;;;;;2054686;28;20034;-81
2023/05/04 04:13:26;;;;;;;1.98;1.70;;;;;;;;;;2050413;28;20035;-82
2023/05/04 04:14:47;;;;;;;13.55;2.22;;;;;;;;;;2053638;28;20408;-83
2023/05/04 04:16:06;;;;;;;3.10;2.13;;;;;;;;;;2053274;28;20026;-82
2023/05/04 04:17:25;;;;;;;4.10;2.05;;;;;;;;;;2050680;28;20035;-82
2023/05/04 04:18:45;;;;;;;8.05;2.25;;;;;;;;;;2048531;28;20030;-83
2023/05/04 04:20:05;;;;;;;6.28;2.08;;;;;;;;;;2053916;28;20035;-82
2023/05/04 04:21:24;;;;;;;6.55;2.05;;;;;;;;;;2051735;28;20026;-83
2023/05/04 04:22:45;;;;;;;3.30;1.90;;;;;;;;;;2046198;29;20137;-81
2023/05/04 04:24:05;;;;;;;3.38;1.98;;;;;;;;;;2053180;28;20030;-81
2023/05/04 04:25:24;;;;;;;5.72;1.98;;;;;;;;;;2056570;28;20043;-82
2023/05/04 04:26:43;;;;;;;22.45;3.30;;;;;;;;;;2055240;28;20026;-82
2023/05/04 04:28:02;;;;;;;4.57;2.20;;;;;;;;;;2051284;28;20023;-81
2023/05/04 04:29:21;;;;;;;3.88;2.35;;;;;;;;;;2050709;28;20609;-82
2023/05/04 04:30:40;;;;;;;4.22;2.22;;;;;;;;;;2052350;28;20591;-81
2023/05/04 04:32:03;;;;;;;10.40;2.30;;;;;;;;;;2048003;28;20020;-82
2023/05/04 04:33:23;;;;;;;3.95;1.83;;;;;;;;;;2053285;28;20192;-81
2023/05/04 04:34:43;;;;;;;11.43;2.53;;;;;;;;;;2059515;28;20039;-82
2023/05/04 04:36:02;;;;;;;9.45;2.13;;;;;;;;;;2041069;29;20036;-82
2023/05/04 04:37:22;;;;;;;4.38;2.25;;;;;;;;;;2047069;28;20031;-81
2023/05/04 04:38:43;;;;;;;6.55;2.17;;;;;;;;;;2058952;28;20035;-77
2023/05/04 04:40:02;;;;;;;3.20;2.00;;;;;;;;;;2053868;28;20035;-79
2023/05/04 04:41:21;;;;;;;9.10;2.85;;;;;;;;;;2049680;28;20039;-79
2023/05/04 04:42:41;;;;;;;5.45;1.83;;;;;;;;;;2045531;28;20121;-80
2023/05/04 04:43:59;;;;;;;7.57;2.25;;;;;;;;;;2055454;28;20567;-83
2023/05/04 04:45:19;;;;;;;3.70;2.22;;;;;;;;;;2054477;28;20704;-80
2023/05/04 04:46:38;;;;;;;7.78;2.30;;;;;;;;;;2051599;28;20114;-81
2023/05/04 04:47:58;;;;;;;12.55;2.45;;;;;;;;;;2052768;28;20023;-82
2023/05/04 04:49:17;;;;;;;14.70;2.40;;;;;;;;;;2051627;28;20039;-81
2023/05/04 04:50:39;;;;;;;13.30;3.10;;;;;;;;;;2050281;28;20586;-82
2023/05/04 04:51:58;;;;;;;13.95;3.20;;;;;;;;;;2052352;28;20419;-80
2023/05/04 04:53:17;;;;;;;6.78;2.20;;;;;;;;;;2049537;28;20447;-80
2023/05/04 04:54:36;;;;;;;12.38;2.70;;;;;;;;;;2051595;28;20079;-81
2023/05/04 04:55:55;;;;;;;7.88;1.98;;;;;;;;;;2051274;28;20045;-80
2023/05/04 04:57:17;;;;;;;9.85;2.30;;;;;;;;;;2052565;28;20032;-79
2023/05/04 04:58:36;;;;;;;5.65;1.75;;;;;;;;;;2058208;28;20058;-81
2023/05/04 04:59:55;;;;;;;3.63;1.63;;;;;;;;;;2050516;28;20027;-80
2023/05/04 05:01:16;;;;;;;8.18;2.00;;;;;;;;;;2046244;28;20039;-79
2023/05/04 05:02:35;;;;;;;6.90;1.92;;;;;;;;;;2050235;28;20027;-79
2023/05/04 05:03:55;;;;;;;6.40;1.98;;;;;;;;;;2052293;28;20022;-78
2023/05/04 05:05:14;;;;;;;3.65;2.05;;;;;;;;;;2049270;28;20027;-78
2023/05/04 05:06:32;;;;;;;10.57;1.95;;;;;;;;;;2050250;28;20027;-78
2023/05/04 05:07:51;;;;;;;12.48;1.95;;;;;;;;;;2050129;28;20106;-78
2023/05/04 05:09:10;;;;;;;9.07;2.15;;;;;;;;;;2051614;28;20023;-78
2023/05/04 05:10:29;;;;;;;21.52;3.35;;;;;;;;;;2049967;28;20031;-78
2023/05/04 05:11:48;;;;;;;16.00;2.90;;;;;;;;;;2048126;28;20024;-77
2023/05/04 05:13:08;;;;;;;17.10;2.92;;;;;;;;;;2054701;28;20034;-79
2023/05/04 05:14:26;;;;;;;5.07;2.25;;;;;;;;;;2056659;28;20113;-80
2023/05/04 05:15:45;;;;;;;12.40;2.50;;;;;;;;;;2056902;28;20042;-78
2023/05/04 05:17:04;;;;;;;12.23;2.00;;;;;;;;;;2050366;28;20031;-80
2023/05/04 05:18:24;;;;;;;2.92;1.60;;;;;;;;;;2049233;28;20034;-80
2023/05/04 05:19:42;;;;;;;8.32;2.55;;;;;;;;;;2057710;28;20477;-76
2023/05/04 05:21:02;;;;;;;7.15;2.20;;;;;;;;;;2051740;28;20830;-79
2023/05/04 05:22:21;;;;;;;7.95;1.95;;;;;;;;;;2050016;28;20123;-79
2023/05/04 05:23:40;;;;;;;4.10;1.30;;;;;;;;;;2051336;28;20074;-79
2023/05/04 05:24:59;;;;;;;4.00;1.83;;;;;;;;;;2047295;28;20462;-81
2023/05/04 05:26:18;;;;;;;2.35;1.88;;;;;;;;;;2052316;28;20109;-78
2023/05/04 05:27:37;;;;;;;3.70;1.73;;;;;;;;;;2048004;28;20031;-78
2023/05/04 05:28:56;;;;;;;2.97;1.48;;;;;;;;;;2045819;28;20028;-82
2023/05/04 05:30:15;;;;;;;5.47;1.50;;;;;;;;;;2046384;28;20027;-81
2023/05/04 05:31:34;;;;;;;4.28;1.67;;;;;;;;;;2048178;28;20031;-78
2023/05/04 05:32:53;;;;;;;5.65;2.00;;;;;;;;;;2045919;28;20031;-79
2023/05/04 05:34:12;;;;;;;6.25;1.73;;;;;;;;;;2053299;28;20035;-78
2023/05/04 05:35:31;;;;;;;17.70;2.17;;;;;;;;;;2053038;28;20031;-78
2023/05/04 05:36:50;;;;;;;10.80;2.42;;;;;;;;;;2052864;28;20031;-78
2023/05/04 05:38:09;;;;;;;9.57;2.00;;;;;;;;;;2047591;28;20043;-79
2023/05/04 05:39:28;;;;;;;12.45;2.17;;;;;;;;;;2055947;28;20030;-80
2023/05/04 05:40:48;;;;;;;20.42;2.78;;;;;;;;;;2051212;28;20031;-79
2023/05/04 05:42:07;;;;;;;5.68;2.35;;;;;;;;;;2056763;28;20031;-78
2023/05/04 05:43:26;;;;;;;4.35;1.80;;;;;;;;;;2047125;28;20111;-80
2023/05/04 05:44:45;;;;;;;11.48;1.60;;;;;;;;;;2042450;28;20031;-81
2023/05/04 05:46:05;;;;;;;11.48;1.70;;;;;;;;;;2048821;28;20050;-79
2023/05/04 05:47:24;;;;;;;4.72;1.77;;;;;;;;;;2049694;28;20027;-80
2023/05/04 05:48:43;;;;;;;8.25;1.98;;;;;;;;;;2047731;28;20324;-81
2023/05/04 05:50:03;;;;;;;9.65;2.22;;;;;;;;;;2050918;28;20240;-79
2023/05/04 05:51:22;;;;;;;8.30;1.98;;;;;;;;;;2057686;28;20031;-79
2023/05/04 05:52:41;;;;;;;8.23;1.70;;;;;;;;;;2065132;28;20023;-80
2023/05/04 05:54:00;;;;;;;9.27;2.25;;;;;;;;;;2058851;28;20481;-81
2023/05/04 05:55:19;;;;;;;5.80;2.20;;;;;;;;;;2059001;28;20055;-82
2023/05/04 05:56:38;;;;;;;3.53;1.60;;;;;;;;;;2059271;28;20011;-78
2023/05/04 05:57:57;;;;;;;22.20;2.38;;;;;;;;;;2054718;28;20054;-81
2023/05/04 05:59:17;;;;;;;5.80;1.60;;;;;;;;;;2063856;28;20027;-81
2023/05/04 06:00:36;;;;;;;14.85;3.35;;;;;;;;;;2060050;28;20034;-81
2023/05/04 06:01:55;;;;;;;7.28;1.77;;;;;;;;;;2059516;28;20035;-79
2023/05/04 06:03:14;;;;;;;9.82;2.38;;;;;;;;;;2053274;28;20063;-80
2023/05/04 06:04:33;;;;;;;8.55;1.85;;;;;;;;;;2052316;28;20059;-81
2023/05/04 06:05:54;;;;;;;9.57;2.40;;;;;;;;;;2061219;28;20532;-81
2023/05/04 06:07:13;;;;;;;8.93;2.28;;;;;;;;;;2053654;28;20031;-80
2023/05/04 06:08:32;;;;;;;2.72;1.40;;;;;;;;;;2056684;28;20018;-81
2023/05/04 06:09:51;;;;;;;4.60;2.85;;;;;;;;;;2051346;28;20019;-80
2023/05/04 06:11:10;;;;;;;1.10;1.10;;;;;;;;;;2047608;28;20059;-80
2023/05/04 06:12:30;;;;;;;2.15;1.50;;;;;;;;;;2054518;28;20513;-80
2023/05/04 06:13:49;;;;;;;9.75;1.50;;;;;;;;;;2049397;28;20043;-81
2023/05/04 06:15:08;;;;;;;6.72;1.55;;;;;;;;;;2052264;28;20068;-79
2023/05/04 06:16:28;;;;;;;7.30;1.98;;;;;;;;;;2049509;28;20501;-80
2023/05/04 06:17:48;;;;;;;11.45;1.77;;;;;;;;;;2051795;28;20043;-80
2023/05/04 06:19:07;;;;;;;1.98;1.27;;;;;;;;;;2052579;28;20480;-81
2023/05/04 06:20:27;;;;;;;4.97;1.17;;;;;;;;;;2053190;28;20028;-80
2023/05/04 06:21:47;;;;;;;9.60;2.30;;;;;;;;;;2057723;28;20038;-80
2023/05/04 06:23:06;;;;;;;3.33;1.30;;;;;;;;;;2059519;28;20158;-81
2023/05/04 06:24:25;;;;;;;3.58;1.20;;;;;;;;;;2051526;28;20039;-79
2023/05/04 06:25:44;;;;;;;4.00;1.50;;;;;;;;;;2051255;28;20039;-80
2023/05/04 06:27:03;;;;;;;3.20;1.35;;;;;;;;;;2050358;28;20027;-80
2023/05/04 06:28:22;;;;;;;2.42;1.55;;;;;;;;;;2061620;28;20039;-82
2023/05/04 06:29:41;;;;;;;4.38;1.33;;;;;;;;;;2051787;28;20043;-82
2023/05/04 06:31:01;;;;;;;1.80;1.50;;;;;;;;;;2053273;28;20437;-80
2023/05/04 06:32:20;;;;;;;9.75;1.67;;;;;;;;;;2049884;28;20039;-81
2023/05/04 06:33:42;;;;;;;4.28;1.25;;;;;;;;;;2049399;28;20027;-84
2023/05/04 06:35:01;;;;;;;24.55;2.35;;;;;;;;;;2055936;28;20034;-82
2023/05/04 06:36:20;;;;;;;11.73;2.15;;;;;;;;;;2051157;28;20087;-83
2023/05/04 06:37:39;;;;;;;10.18;1.70;;;;;;;;;;2048838;28;20129;-82
2023/05/04 06:38:58;;;;;;;5.13;1.50;;;;;;;;;;2049799;28;20496;-82
2023/05/04 06:40:17;;;;;;;9.88;1.70;;;;;;;;;;2051047;28;20038;-80
2023/05/04 06:41:36;;;;;;;11.98;2.05;;;;;;;;;;2056580;28;20520;-81
2023/05/04 06:42:55;;;;;;;12.88;2.50;;;;;;;;;;2047386;28;20035;-83
2023/05/04 06:44:14;;;;;;;27.77;3.53;;;;;;;;;;2048803;28;20019;-79
2023/05/04 06:45:33;;;;;;;5.35;1.25;;;;;;;;;;2047721;28;20345;-82
2023/05/04 06:46:53;;;;;;;8.43;1.65;;;;;;;;;;2054731;28;20023;-81
2023/05/04 06:48:12;;;;;;;9.38;2.28;;;;;;;;;;2052444;28;20031;-81
2023/05/04 06:49:32;;;;;;;8.10;1.45;;;;;;;;;;2052415;28;20579;-80
2023/05/04 06:50:51;;;;;;;14.18;1.88;;;;;;;;;;2051558;28;20050;-80
2023/05/04 06:52:10;;;;;;;3.97;1.35;;;;;;;;;;2050121;28;20023;-81
2023/05/04 06:53:29;;;;;;;13.77;1.48;;;;;;;;;;2049920;28;20058;-80
2023/05/04 06:54:49;;;;;;;7.18;1.75;;;;;;;;;;2054360;28;20035;-80
2023/05/04 06:56:08;;;;;;;3.10;1.40;;;;;;;;;;2058572;28;20387;-80
2023/05/04 06:57:28;;;;;;;5.15;1.00;;;;;;;;;;2053975;28;20444;-80
2023/05/04 06:58:49;;;;;;;10.98;1.48;;;;;;;;;;2055243;28;20034;-81
2023/05/04 07:00:09;;;;;;;11.73;1.88;;;;;;;;;;2055391;28;20027;-81
2023/05/04 07:01:28;;;;;;;2.42;1.20;;;;;;;;;;2051031;28;20027;-80
2023/05/04 07:02:47;;;;;;;2.72;1.20;;;;;;;;;;2051509;28;20487;-81
2023/05/04 07:04:08;;;;;;;3.10;1.30;;;;;;;;;;2052113;28;20508;-81
2023/05/04 07:05:27;;;;;;;3.55;1.30;;;;;;;;;;2049977;28;20431;-81
2023/05/04 07:06:46;;;;;;;4.95;1.13;;;;;;;;;;2052213;28;20452;-80
2023/05/04 07:08:06;;;;;;;3.25;1.35;;;;;;;;;;2048448;28;20481;-80
2023/05/04 07:09:25;;;;;;;5.25;1.50;;;;;;;;;;2048802;28;20023;-80
2023/05/04 07:10:45;;;;;;;8.15;1.80;;;;;;;;;;2049491;28;20023;-80
2023/05/04 07:12:04;;;;;;;12.27;1.48;;;;;;;;;;2052934;28;20035;-80
2023/05/04 07:13:23;;;;;;;2.05;0.90;;;;;;;;;;2052209;28;20027;-81
2023/05/04 07:14:42;;;;;;;8.13;1.08;;;;;;;;;;2052675;28;20388;-81
2023/05/04 07:16:05;;;;;;;3.53;0.90;;;;;;;;;;2051903;28;20457;-81
2023/05/04 07:17:24;;;;;;;5.40;0.98;;;;;;;;;;2053346;28;20031;-81
2023/05/04 07:18:43;;;;;;;3.83;1.40;;;;;;;;;;2052680;28;20031;-81
2023/05/04 07:20:03;;;;;;;3.42;1.00;;;;;;;;;;2052143;28;20031;-81
2023/05/04 07:21:23;;;;;;;1.50;0.85;;;;;;;;;;2050127;28;20027;-81
2023/05/04 07:22:42;;;;;;;4.47;0.80;;;;;;;;;;2051609;28;20047;-81
2023/05/04 07:24:03;;;;;;;3.50;0.75;;;;;;;;;;2051550;28;20808;-81
2023/05/04 07:25:23;;;;;;;5.50;0.88;;;;;;;;;;2042826;28;20031;-81
2023/05/04 07:26:42;;;;;;;2.08;0.93;;;;;;;;;;2048796;28;20098;-78
2023/05/04 07:28:01;;;;;;;3.05;0.80;;;;;;;;;;2048965;28;20091;-81
2023/05/04 07:29:20;;;;;;;6.13;1.25;;;;;;;;;;2050517;28;20027;-79
2023/05/04 07:30:39;;;;;;;1.55;0.77;;;;;;;;;;2048383;28;20027;-80
2023/05/04 07:31:58;;;;;;;0.95;0.80;;;;;;;;;;2047879;28;20038;-80
2023/05/04 07:33:16;;;;;;;3.55;1.17;;;;;;;;;;2049928;28;20066;-79
2023/05/04 07:34:35;;;;;;;0.82;0.70;;;;;;;;;;2045940;28;20912;-81
2023/05/04 07:35:57;;;;;;;5.22;1.45;;;;;;;;;;2056002;28;20031;-80
2023/05/04 07:37:16;;;;;;;2.75;1.15;;;;;;;;;;2050977;28;20039;-81
2023/05/04 07:38:35;;;;;;;11.82;1.45;;;;;;;;;;2052163;28;20026;-80
2023/05/04 07:39:54;;;;;;;4.25;0.85;;;;;;;;;;2051799;28;20023;-80
2023/05/04 07:41:13;;;;;;;9.68;1.00;;;;;;;;;;2052911;28;20043;-80
2023/05/04 07:42:32;;;;;;;5.00;0.75;;;;;;;;;;2050648;28;20027;-81
2023/05/04 07:43:51;;;;;;;1.20;0.88;;;;;;;;;;2051457;28;20511;-80
2023/05/04 07:45:10;;;;;;;3.58;0.80;;;;;;;;;;2049885;28;20473;-81
2023/05/04 07:46:29;;;;;;;6.32;0.90;;;;;;;;;;2053752;28;20034;-80
2023/05/04 07:47:48;;;;;;;9.20;0.95;;;;;;;;;;2051695;28;20036;-80
2023/05/04 07:49:07;;;;;;;1.60;0.63;;;;;;;;;;2048648;28;20022;-79
2023/05/04 07:50:26;;;;;;;6.63;1.33;;;;;;;;;;2050835;28;20046;-80
2023/05/04 07:51:45;;;;;;;5.15;1.17;;;;;;;;;;2047309;28;20059;-81
2023/05/04 07:53:04;;;;;;;5.90;0.90;;;;;;;;;;2054618;28;20470;-80
2023/05/04 07:54:23;;;;;;;8.13;1.20;;;;;;;;;;2051366;28;20039;-80
2023/05/04 07:55:42;;;;;;;8.07;0.95;;;;;;;;;;2058377;28;20043;-81